aviador You're here:

LEAM Decoded Metar

ALMERIA in SPAIN
Report Time2017-11-24 20:00:00
UTC Time2017-11-24 20:23:57
Flight Rules vfr VFR
Wind320° at 03 kt
W.Decomp.*RWY 25: 1.0 kt HW 2.8 kt RCW
W.Rank320° ranks 13
Current wind is below 320° avg. (8.3)
Visibility9999 m
Phenomena:N/A
Clouds:N/A
Expected CloudBase > 800 ft AGL from Temp-Dew spread
CeilingNone
Temp13°C (ISA -2)
Dew Point11°C (88% RH)
AAT12.3°C
QNH1020 hPa
Density Alt-213 ft
Elevation69 ft
Report Wrong Elevation
Raw Report
LEAM 242000Z 32003KT CAVOK 13/11 Q1020=

Extra information for LEAM:More info

Metar Taf Metar & Taf Last 4 Metars F.Rules Stats Wind Profile Meteogram Temp Stats Airport Information Weather charts Add Link Nearby VenuesMetar ALERT Operation Metar Decoded Social comments